• Join FlightAware (Why Join?)
  • Login
  • US Flag 
11:01PM EDT


 

Airport Tracker/Info


-or-


 

Live Flight TrackerFlight Track Log ✈ FTH19 ✈ 02-May-2012 ✈ KFWS - KGYR

Flight Track Log - Related Links

Times and Time Zones

All times are in EDT time to prevent confusion due to time zone crossing. See the FTH19 flight status page for this flight to view local times or setup timezone preferences in your user account.

Time Position Orientation Groundspeed Altitude Reporting Facility
EDT Latitude Longitude Course Direction KTS MPH feet Rate Location/Type
01:11PM 32.5400 -97.3094 180° South 171 197 1,700  Level FAA TRACON SMA TRACON (SMA)
01:12PM 32.5100 -97.3097 262° West 182 209 3,500 2,580 Climbing FAA TRACON SMA TRACON (SMA)
01:12PM 32.5050 -97.3494 315° West 218 251 5,200 2,460 Climbing FAA TRACON SMA TRACON (SMA)
01:13PM 32.5361 -97.3867 297° West 231 266 6,800 2,280 Climbing FAA TRACON SMA TRACON (SMA)
01:14PM 32.5586 -97.4383 288° West 254 292 8,300 1,980 Climbing FAA TRACON SMA TRACON (SMA)
01:14PM 32.5725 -97.4900 286° West 263 303 9,500 2,100 Climbing FAA TRACON SMA TRACON (SMA)
01:15PM 32.5878 -97.5517 290° West 280 322 11,200 2,220 Climbing FAA TRACON SMA TRACON (SMA)
01:16PM 32.6044 -97.6075 290° West 292 336 12,500 2,400 Climbing FAA TRACON SMA TRACON (SMA)
01:16PM 32.6233 -97.6686 290° West 297 342 14,400 2,640 Climbing FAA TRACON SMA TRACON (SMA)
01:17PM 32.6436 -97.7347 288° West 296 341 16,100 1,980 Climbing FAA TRACON SMA TRACON (SMA)
01:18PM 32.6600 -97.7936 289° West 317 365 17,100 900 Climbing FAA TRACON SMA TRACON (SMA)
01:18PM 32.6622 -97.8014 288° West 318 366 17,300 2,400 Climbing FAA TRACON SMA TRACON (SMA)
01:19PM 32.6978 -97.9344 261° West 334 384 20,300 3,120 Climbing FAA TRACON SMA TRACON (SMA)
01:20PM 32.6892 -97.9992 263° West 323 372 21,500 2,100 Climbing FAA TRACON SMA TRACON (SMA)
01:20PM 32.6819 -98.0742 262° West 330 380 23,100 1,980 Climbing FAA TRACON SMA TRACON (SMA)
01:22PM 32.6658 -98.2178 265° West 331 381 25,500 1,620 Climbing Fort Worth Center
01:23PM 32.6567 -98.3314 261° West 337 388 27,000 1,500 Climbing Fort Worth Center
01:24PM 32.6411 -98.4422 264° West 342 394 28,600 1,320 Climbing Fort Worth Center
01:25PM 32.6319 -98.5408 268° West 342 394 29,700 1,140 Climbing Fort Worth Center
01:26PM 32.6289 -98.6617 263° West 354 407 30,900 1,140 Climbing Fort Worth Center
01:27PM 32.6172 -98.7822 268° West 365 420 32,000 1,200 Climbing Fort Worth Center
01:28PM 32.6136 -98.9031 266° West 370 426 33,400 1,260 Climbing Fort Worth Center
01:29PM 32.6058 -99.0239 266° West 370 426 34,600 1,200 Climbing Fort Worth Center
01:30PM 32.5981 -99.1494 265° West 370 426 35,900 1,080 Climbing Fort Worth Center
01:31PM 32.5900 -99.2653 265° West 365 420 36,800 900 Climbing Fort Worth Center
01:32PM 32.5819 -99.3783 265° West 365 420 37,800 600 Climbing Fort Worth Center
01:33PM 32.5739 -99.4942 265° West 360 414 38,000 60 Climbing Fort Worth Center
01:34PM 32.5656 -99.6147 264° West 360 414 38,000  Level Fort Worth Center
01:35PM 32.5550 -99.7425 264° West 375 432 38,000  Level Fort Worth Center
01:36PM 32.5439 -99.8778 267° West 400 460 38,000  Level Fort Worth Center
01:37PM 32.5369 -100.0156 267° West 415 478 38,000  Level Fort Worth Center
01:38PM 32.5300 -100.1508 266° West 421 484 38,000  Level Fort Worth Center
01:39PM 32.5231 -100.2739 265° West 421 484 38,000  Level Fort Worth Center
01:40PM 32.5136 -100.4117 265° West 421 484 38,000  Level Fort Worth Center
01:41PM 32.5039 -100.5467 265° West 421 484 38,000  Level Fort Worth Center
01:42PM 32.4942 -100.6844 264° West 421 484 38,000  Level Fort Worth Center
01:43PM 32.4822 -100.8217 266° West 421 484 38,000  Level Fort Worth Center
01:44PM 32.4742 -100.9594 264° West 421 484 38,000  Level Fort Worth Center
01:45PM 32.4619 -101.0942 264° West 421 484 38,000  Level Fort Worth Center
01:46PM 32.4497 -101.2292 264° West 421 484 38,000  Level Fort Worth Center
01:47PM 32.4367 -101.3764 265° West 421 484 38,000  Level Fort Worth Center
01:48PM 32.4261 -101.5136 266° West 420 483 38,000  Level Fort Worth Center
01:49PM 32.4172 -101.6511 264° West 420 483 38,000  Level Fort Worth Center
01:50PM 32.4042 -101.7881 265° West 427 491 38,000  Level Fort Worth Center
01:51PM 32.3933 -101.9231 264° West 421 484 38,000  Level Fort Worth Center
01:52PM 32.3819 -102.0600 265° West 428 493 38,000  Level Fort Worth Center
01:53PM 32.3706 -102.1997 263° West 423 487 38,000  Level Fort Worth Center
01:54PM 32.3572 -102.3244 264° West 423 487 38,000  Level Fort Worth Center
01:55PM 32.3453 -102.4664 264° West 423 487 38,000  Level Fort Worth Center
01:56PM 32.3336 -102.6033 264° West 423 487 38,000  Level Fort Worth Center
01:57PM 32.3164 -102.8108 264° West 425 489 38,000  Level Albuquerque Center
01:58PM 32.3033 -102.9636 264° West 425 489 38,000  Level Albuquerque Center
01:59PM 32.2917 -103.0992 264° West 420 483 38,000  Level Albuquerque Center
02:00PM 32.2797 -103.2325 263° West 425 489 38,000  Level Albuquerque Center
02:01PM 32.2656 -103.3731 264° West 430 495 38,000  Level Albuquerque Center
02:02PM 32.2533 -103.5086 263° West 425 489 38,000  Level Albuquerque Center
02:03PM 32.2389 -103.6442 263° West 430 495 38,000  Level Albuquerque Center
02:04PM 32.2242 -103.7822 263° West 424 488 38,000  Level Albuquerque Center
02:05PM 32.2097 -103.9225 265° West 429 494 38,000  Level Albuquerque Center
02:06PM 32.1989 -104.0578 264° West 422 486 38,000  Level Albuquerque Center
02:07PM 32.1858 -104.1956 263° West 422 486 38,000  Level Albuquerque Center
02:08PM 32.1706 -104.3333 263° West 428 493 38,000  Level Albuquerque Center
02:09PM 32.1553 -104.4711 263° West 428 493 38,000  Level Albuquerque Center
02:10PM 32.1397 -104.6139 263° West 428 493 38,000  Level Albuquerque Center
02:11PM 32.1261 -104.7514 263° West 428 493 38,000  Level Albuquerque Center
02:12PM 32.1106 -104.8917 263° West 428 493 38,000  Level Albuquerque Center
02:13PM 32.0964 -105.0267 263° West 428 493 38,000  Level Albuquerque Center
02:14PM 32.0822 -105.1594 262° West 423 487 38,000  Level Albuquerque Center
02:15PM 32.0658 -105.2919 263° West 423 487 38,000  Level Albuquerque Center
02:16PM 32.0514 -105.4269 262° West 423 487 38,000  Level Albuquerque Center
02:17PM 32.0347 -105.5644 263° West 423 487 38,000  Level Albuquerque Center
02:18PM 32.0200 -105.7019 262° West 429 494 38,000  Level Albuquerque Center
02:19PM 32.0031 -105.8367 262° West 429 494 38,000  Level Albuquerque Center
02:20PM 31.9881 -105.9592 263° West 429 494 38,000  Level Albuquerque Center
02:21PM 31.9747 -106.0917 260° West 429 494 38,000  Level Albuquerque Center
02:22PM 31.9553 -106.2264 273° West 424 488 38,000  Level Albuquerque Center
02:23PM 31.9606 -106.3633 279° West 424 488 38,000  Level Albuquerque Center
02:24PM 31.9806 -106.5050 276° West 424 488 38,000  Level Albuquerque Center
02:25PM 31.9939 -106.6442 278° West 424 488 38,000  Level Albuquerque Center
02:26PM 32.0114 -106.7836 278° West 429 494 38,000  Level Albuquerque Center
02:27PM 32.0267 -106.9206 277° West 429 494 38,000  Level Albuquerque Center
02:28PM 32.0417 -107.0600 277° West 429 494 38,000  Level Albuquerque Center
02:29PM 32.0564 -107.1969 278° West 429 494 38,000  Level Albuquerque Center
02:30PM 32.0733 -107.3367 276° West 424 488 38,000  Level Albuquerque Center
02:31PM 32.0878 -107.4883 277° West 424 488 38,000  Level Albuquerque Center
02:32PM 32.1022 -107.6281 277° West 424 488 38,000  Level Albuquerque Center
02:33PM 32.1164 -107.7703 278° West 430 495 38,000  Level Albuquerque Center
02:34PM 32.1325 -107.9125 279° West 430 495 38,000  Level Albuquerque Center
02:35PM 32.1506 -108.0522 282° West 430 495 38,000  Level Albuquerque Center
02:36PM 32.1767 -108.1947 283° West 436 502 38,000  Level Albuquerque Center
02:37PM 32.2028 -108.3322 283° West 441 507 38,000  Level Albuquerque Center
02:38PM 32.2308 -108.4750 282° West 441 507 38,000  Level Albuquerque Center
02:39PM 32.2544 -108.6125 281° West 446 513 38,000  Level Albuquerque Center
02:40PM 32.2778 -108.7578 282° West 446 513 38,000  Level Albuquerque Center
02:41PM 32.3031 -108.9006 282° West 446 513 38,000  Level Albuquerque Center
02:42PM 32.3283 -109.0411 282° West 446 513 38,000  Level Albuquerque Center
02:43PM 32.3533 -109.1817 282° West 446 513 38,000  Level Albuquerque Center
02:44PM 32.3783 -109.3247 282° West 446 513 38,000 -360 Level Albuquerque Center
02:45PM 32.4031 -109.4678 280° West 446 513 37,300 -900 Descending Albuquerque Center
02:46PM 32.4253 -109.6108 281° West 446 513 36,300 -1,380 Descending Albuquerque Center
02:47PM 32.4497 -109.7567 282° West 446 513 34,600 -1,800 Descending Albuquerque Center
02:48PM 32.4758 -109.9025 281° West 451 519 32,800 -1,800 Descending Albuquerque Center
02:49PM 32.5000 -110.0458 280° West 451 519 31,000 -1,860 Descending Albuquerque Center
02:50PM 32.5197 -110.1844 281° West 446 513 29,100 -1,860 Descending Albuquerque Center
02:51PM 32.5433 -110.3231 281° West 440 506 27,300 -1,740 Descending Albuquerque Center
02:52PM 32.5633 -110.4469 283° West 434 499 25,700 -1,620 Descending Albuquerque Center
02:53PM 32.5889 -110.5808 299° West 429 494 24,100 -1,860 Descending Albuquerque Center
02:54PM 32.6461 -110.7014 301° West 422 486 22,000 -2,580 Descending Albuquerque Center
02:55PM 32.7033 -110.8144 301° West 411 473 19,000 -3,000 Descending Albuquerque Center
02:56PM 32.7664 -110.9381 301° West 411 473 16,100 -2,820 Descending Albuquerque Center
02:57PM 32.8194 -111.0439 303° West 401 461 13,400 -2,640 Descending Albuquerque Center
02:58PM 32.8728 -111.1428 302° West 384 442 10,900 -2,160 Descending Albuquerque Center
02:59PM 32.9181 -111.2289 299° West 338 389 9,100 -960 Descending Albuquerque Center
03:00PM 32.9569 -111.3122 301° West 308 354 9,000 -60 Descending Albuquerque Center
03:01PM 32.9942 -111.3856 295° West 293 337 9,000  Level Albuquerque Center
03:02PM 33.0269 -111.4689 292° West 293 337 9,000  Level Albuquerque Center
03:03PM 33.0572 -111.5572 296° West 288 331 9,000 -1,200 Level Albuquerque Center
03:05PM 33.1167 -111.7000 306° West 273 314 5,900 -1,320 Descending Phoenix TRACON
03:06PM 33.1667 -111.7833 296° West 276 318 5,500 -240 Descending Phoenix TRACON
03:07PM 33.2000 -111.8667 301° West 249 287 5,500 -360 Level Phoenix TRACON
03:08PM 33.2333 -111.9333 301° West 244 281 4,800 -840 Descending Phoenix TRACON
03:09PM 33.2667 -112.0000 287° West 239 275 3,900 -480 Descending Phoenix TRACON
03:10PM 33.2833 -112.0667 296° West 234 269 3,900 -120 Level Phoenix TRACON
03:11PM 33.3167 -112.1500 283° West 237 273 3,700 -480 Descending Phoenix TRACON
03:12PM 33.3333 -112.2333 309° West 236 272 2,900 -420 Descending Phoenix TRACON
03:13PM 33.3667 -112.2833 309° West 188 216 2,900  Level Phoenix TRACON